createdAt,value
2023-03-15T06:04:24.640Z,53.52
2023-03-15T06:06:27.390Z,52.91
2023-03-15T06:08:30.494Z,52.69
2023-03-15T06:10:33.766Z,52.29
2023-03-15T06:12:36.673Z,52.21
2023-03-15T06:14:39.636Z,52.15
2023-03-15T06:16:42.580Z,52.15
2023-03-15T06:18:45.348Z,51.82
2023-03-15T06:20:49.585Z,51.46
2023-03-15T06:22:52.813Z,51.55
2023-03-15T06:24:55.772Z,51.61
2023-03-15T06:26:58.624Z,51.60
2023-03-15T06:29:01.385Z,51.31
2023-03-15T06:31:08.704Z,51.22
2023-03-15T06:33:11.752Z,51.22
2023-03-15T06:35:15.417Z,51.05
2023-03-15T06:37:34.336Z,50.90
2023-03-15T06:39:38.213Z,50.99
2023-03-15T06:41:41.664Z,50.93
2023-03-15T06:43:44.415Z,50.70
2023-03-15T06:45:47.646Z,50.66
2023-03-15T06:47:50.560Z,50.73
2023-03-15T06:49:54.464Z,50.79
2023-03-15T06:51:57.785Z,50.47
2023-03-15T06:54:01.928Z,50.38
2023-03-15T06:56:05.084Z,50.64
2023-03-15T06:58:07.849Z,50.44
2023-03-15T07:00:11.977Z,50.52
2023-03-15T07:02:18.820Z,50.31
2023-03-15T07:04:22.169Z,50.18
2023-03-15T07:06:24.954Z,50.17
2023-03-15T07:08:27.807Z,50.26
2023-03-15T07:10:31.905Z,49.92
2023-03-15T07:12:34.794Z,50.06
2023-03-15T07:14:37.950Z,50.01
2023-03-15T07:16:40.849Z,50.11
2023-03-15T07:18:43.651Z,49.89
2023-03-15T07:20:46.427Z,50.23
2023-03-15T07:22:49.757Z,49.90
2023-03-15T07:24:52.581Z,50.15
2023-03-15T07:26:57.265Z,49.99
2023-03-15T07:29:00.052Z,49.91
2023-03-15T07:31:04.577Z,50.16
2023-03-15T07:33:09.835Z,49.52
2023-03-15T07:35:13.597Z,49.92
2023-03-15T07:37:18.307Z,49.99
2023-03-15T07:39:21.151Z,49.89
2023-03-15T07:41:23.930Z,49.80
2023-03-15T07:43:29.264Z,49.87
2023-03-15T07:45:32.079Z,49.65
2023-03-15T07:47:35.201Z,49.65
2023-03-15T07:49:38.044Z,49.42
2023-03-15T07:51:42.257Z,49.23
2023-03-15T07:53:45.231Z,49.47
2023-03-15T07:55:48.604Z,49.17
2023-03-15T07:57:53.260Z,49.39
2023-03-15T07:59:58.626Z,49.25
2023-03-15T08:02:02.964Z,49.09
2023-03-15T08:04:06.635Z,49.06
2023-03-15T08:06:10.802Z,49.30
2023-03-15T08:08:13.674Z,49.08
2023-03-15T08:10:17.905Z,49.08
2023-03-15T08:12:20.945Z,48.91
2023-03-15T08:14:24.552Z,49.03
2023-03-15T08:16:28.916Z,48.67
2023-03-15T08:18:31.786Z,48.68
2023-03-15T08:20:34.871Z,48.42
2023-03-15T08:22:38.563Z,48.60
2023-03-15T08:24:41.552Z,48.48
2023-03-15T08:26:45.143Z,48.13
2023-03-15T08:28:47.986Z,47.92
2023-03-15T08:30:50.836Z,48.26
2023-03-15T08:32:55.317Z,48.33
2023-03-15T08:34:58.184Z,48.33
2023-03-15T08:37:01.260Z,48.28
2023-03-15T08:39:05.468Z,47.87
2023-03-15T08:41:08.456Z,48.30
2023-03-15T08:43:11.360Z,47.99
2023-03-15T08:45:14.845Z,47.95
2023-03-15T08:47:17.655Z,48.08
2023-03-15T08:49:21.779Z,47.91
2023-03-15T08:51:25.585Z,48.00
2023-03-15T08:53:28.461Z,47.89
2023-03-15T08:55:31.213Z,47.43
2023-03-15T08:57:34.277Z,47.63
2023-03-15T08:59:37.098Z,47.64
2023-03-15T09:01:40.902Z,47.57
2023-03-15T09:03:44.211Z,47.65
2023-03-15T09:05:48.857Z,47.80
2023-03-15T09:07:53.175Z,47.66
2023-03-15T09:09:56.221Z,47.36
2023-03-15T09:11:59.121Z,47.08
2023-03-15T09:14:01.944Z,47.39
2023-03-15T09:16:07.477Z,47.17
2023-03-15T09:18:10.332Z,46.88
2023-03-15T09:20:16.592Z,46.96
2023-03-15T09:22:37.901Z,46.90
2023-03-15T09:24:41.872Z,46.59
2023-03-15T09:26:44.666Z,46.90
2023-03-15T09:28:47.667Z,46.78
2023-03-15T09:30:50.531Z,46.75
2023-03-15T09:32:53.388Z,46.54
2023-03-15T09:34:56.452Z,46.63
2023-03-15T09:36:59.345Z,46.75
2023-03-15T09:39:04.639Z,46.24
2023-03-15T09:41:07.573Z,46.53
2023-03-15T09:43:38.799Z,46.02
2023-03-15T09:46:02.039Z,46.14
2023-03-15T09:48:11.809Z,46.51
2023-03-15T09:50:22.666Z,46.29
2023-03-15T09:52:38.064Z,46.09
2023-03-15T09:54:49.097Z,46.05
2023-03-15T09:56:57.359Z,46.08
2023-03-15T09:59:02.996Z,45.78
2023-03-15T10:01:11.674Z,45.92
2023-03-15T10:03:21.488Z,45.74
2023-03-15T10:05:32.353Z,45.84
2023-03-15T10:07:36.438Z,46.16
2023-03-15T10:09:39.402Z,45.93
2023-03-15T10:11:51.038Z,46.05
2023-03-15T10:14:06.473Z,45.58
2023-03-15T10:16:24.522Z,45.85
2023-03-15T10:18:40.214Z,45.67
2023-03-15T10:20:47.485Z,45.73
2023-03-15T10:22:57.249Z,45.40
2023-03-15T10:25:05.625Z,45.42
2023-03-15T10:27:16.915Z,45.37
2023-03-15T10:29:24.126Z,45.23
2023-03-15T10:31:43.713Z,45.36
2023-03-15T10:33:49.717Z,45.28
2023-03-15T10:35:56.106Z,44.99
2023-03-15T10:38:02.659Z,45.03
2023-03-15T10:40:07.908Z,45.21
2023-03-15T10:42:27.583Z,44.75
2023-03-15T10:44:31.241Z,45.04
2023-03-15T10:46:35.432Z,44.73
2023-03-15T10:48:40.198Z,44.83
2023-03-15T10:50:44.244Z,44.51
2023-03-15T10:52:48.906Z,44.45
2023-03-15T10:54:58.767Z,44.48
2023-03-15T10:57:14.140Z,44.46
2023-03-15T10:59:20.559Z,44.37
2023-03-15T11:01:25.981Z,44.71
2023-03-15T11:03:30.580Z,44.18
2023-03-15T11:05:39.868Z,44.53
2023-03-15T11:07:55.602Z,44.32
2023-03-15T11:10:02.401Z,44.18
2023-03-15T11:12:07.615Z,44.01
2023-03-15T11:14:14.172Z,44.08
2023-03-15T11:16:23.055Z,43.74
2023-03-15T11:18:29.252Z,43.79
2023-03-15T11:20:35.890Z,43.58
2023-03-15T11:22:38.708Z,43.54
2023-03-15T11:24:41.927Z,43.55
2023-03-15T11:26:51.587Z,43.40
2023-03-15T11:29:00.600Z,43.38
2023-03-15T11:31:04.654Z,43.31
2023-03-15T11:33:15.282Z,43.26
2023-03-15T11:35:34.472Z,43.15
2023-03-15T11:37:43.247Z,43.26
2023-03-15T11:39:58.871Z,43.03
2023-03-15T11:42:11.419Z,42.92
2023-03-15T11:44:22.107Z,42.72
2023-03-15T11:46:30.031Z,42.81
2023-03-15T11:48:41.335Z,42.50
2023-03-15T11:50:44.360Z,42.54
2023-03-15T11:52:50.018Z,42.60
2023-03-15T11:54:56.700Z,42.43
2023-03-15T11:57:06.338Z,42.29
2023-03-15T11:59:12.982Z,42.29
2023-03-15T12:01:30.342Z,42.41
2023-03-15T12:03:38.605Z,42.02
2023-03-15T12:05:49.132Z,41.84
2023-03-15T12:08:00.521Z,41.73
2023-03-15T12:10:33.761Z,41.50
2023-03-15T12:12:45.902Z,41.31
2023-03-15T12:14:49.129Z,41.46
2023-03-15T12:16:52.221Z,41.17
2023-03-15T12:18:59.109Z,41.41
2023-03-15T12:21:21.998Z,41.17
2023-03-15T12:23:38.028Z,40.87
2023-03-15T12:25:55.103Z,41.13
2023-03-15T12:28:00.092Z,40.79
2023-03-15T12:30:07.637Z,40.41
2023-03-15T12:32:14.732Z,40.55
2023-03-15T12:34:39.513Z,40.63
2023-03-15T12:36:47.166Z,40.19
2023-03-15T12:39:02.264Z,40.28
2023-03-15T12:41:09.208Z,40.30
2023-03-15T12:43:13.650Z,40.09
2023-03-15T12:45:46.513Z,39.89
2023-03-15T12:48:24.470Z,40.01
2023-03-15T12:50:39.173Z,40.25
2023-03-15T12:52:44.491Z,39.92
2023-03-15T12:54:51.401Z,40.17
2023-03-15T12:56:57.354Z,39.81
2023-03-15T12:59:04.867Z,40.09
2023-03-15T13:01:09.235Z,39.75
2023-03-15T13:03:16.647Z,39.59
2023-03-15T13:05:26.197Z,39.94
2023-03-15T13:07:50.794Z,39.74
2023-03-15T13:10:14.245Z,39.47
2023-03-15T13:12:25.381Z,39.48
2023-03-15T13:14:39.352Z,39.37
2023-03-15T13:16:49.032Z,39.50
2023-03-15T13:19:05.300Z,39.54
2023-03-15T13:21:19.464Z,39.49
2023-03-15T13:23:27.098Z,39.48
2023-03-15T13:25:35.334Z,39.51
2023-03-15T13:27:49.489Z,39.40
2023-03-15T13:29:52.919Z,39.32
2023-03-15T13:32:14.484Z,39.15
2023-03-15T13:34:22.000Z,39.06
2023-03-15T13:36:28.200Z,38.81
2023-03-15T13:38:33.704Z,38.71
2023-03-15T13:40:36.723Z,38.70
2023-03-15T13:42:41.072Z,39.10
2023-03-15T13:44:44.074Z,38.92
2023-03-15T13:46:53.379Z,38.58
2023-03-15T13:48:57.220Z,38.57
2023-03-15T13:51:06.149Z,38.71
2023-03-15T13:53:17.198Z,38.86
2023-03-15T13:55:25.301Z,38.71
2023-03-15T13:57:28.428Z,38.74
2023-03-15T13:59:35.812Z,38.76
2023-03-15T14:01:42.570Z,38.69
2023-03-15T14:03:50.233Z,38.44
2023-03-15T14:05:55.944Z,38.58
2023-03-15T14:08:02.751Z,38.61
2023-03-15T14:10:27.036Z,38.55
2023-03-15T14:12:32.029Z,38.15
2023-03-15T14:14:39.806Z,37.97
2023-03-15T14:17:03.209Z,37.87
2023-03-15T14:19:18.804Z,37.81
2023-03-15T14:21:32.670Z,38.18
2023-03-15T14:23:38.794Z,37.80
2023-03-15T14:25:43.488Z,38.03
2023-03-15T14:27:46.631Z,37.85
2023-03-15T14:29:51.600Z,37.44
2023-03-15T14:32:02.093Z,37.50
2023-03-15T14:34:09.349Z,37.38
2023-03-15T14:36:24.110Z,37.42
2023-03-15T14:38:33.574Z,37.16
2023-03-15T14:40:39.562Z,37.11
2023-03-15T14:42:43.728Z,37.12
2023-03-15T14:44:46.460Z,37.01
2023-03-15T14:46:50.956Z,37.03
2023-03-15T14:48:53.947Z,37.14
2023-03-15T14:50:57.523Z,37.35
2023-03-15T14:53:00.831Z,37.22
2023-03-15T14:55:03.893Z,37.06
2023-03-15T14:57:06.781Z,37.12
2023-03-15T14:59:13.850Z,36.78
2023-03-15T15:01:22.409Z,36.91
2023-03-15T15:03:32.970Z,36.86
2023-03-15T15:05:37.029Z,36.52
2023-03-15T15:07:40.069Z,37.06
2023-03-15T15:09:48.336Z,36.78
2023-03-15T15:11:52.227Z,36.64
2023-03-15T15:13:58.327Z,36.54
2023-03-15T15:16:02.909Z,36.37
2023-03-15T15:18:05.788Z,36.37
2023-03-15T15:20:11.736Z,36.09
2023-03-15T15:22:15.925Z,36.21
2023-03-15T15:24:23.032Z,35.85
2023-03-15T15:26:27.918Z,35.93
2023-03-15T15:28:36.628Z,35.77
2023-03-15T15:30:40.181Z,35.79
2023-03-15T15:32:45.897Z,35.58
2023-03-15T15:34:48.721Z,35.20
2023-03-15T15:36:51.998Z,35.12
2023-03-15T15:38:55.136Z,34.89
2023-03-15T15:40:58.163Z,34.79
2023-03-15T15:43:03.311Z,34.81
2023-03-15T15:45:12.411Z,34.92
2023-03-15T15:47:15.208Z,34.52
2023-03-15T15:49:21.120Z,34.45
2023-03-15T15:51:29.460Z,34.38
2023-03-15T15:53:33.733Z,34.32
2023-03-15T15:55:39.316Z,34.03
2023-03-15T15:57:43.449Z,33.88
2023-03-15T15:59:48.612Z,33.78
2023-03-15T16:02:01.047Z,33.68
2023-03-15T16:04:04.974Z,33.72
2023-03-15T16:06:17.642Z,33.61
2023-03-15T16:08:23.649Z,33.40
2023-03-15T16:10:30.230Z,33.19
2023-03-15T16:12:33.669Z,32.93
2023-03-15T16:14:36.498Z,33.04
2023-03-15T16:16:39.511Z,32.83
2023-03-15T16:18:43.386Z,32.61
2023-03-15T16:20:46.328Z,32.45
2023-03-15T16:22:53.246Z,32.47
2023-03-15T16:24:58.070Z,32.48
2023-03-15T16:27:02.861Z,32.50
2023-03-15T16:29:15.893Z,32.27
2023-03-15T16:31:19.040Z,32.29
2023-03-15T16:33:22.629Z,31.93
2023-03-15T16:35:33.822Z,32.02
2023-03-15T16:37:36.933Z,31.95
2023-03-15T16:39:44.121Z,31.76
2023-03-15T16:41:47.037Z,31.79
2023-03-15T16:43:49.914Z,31.46
2023-03-15T16:45:53.101Z,31.51
2023-03-15T16:47:56.713Z,31.51
2023-03-15T16:49:59.692Z,31.49
2023-03-15T16:52:04.671Z,31.59
2023-03-15T16:54:17.950Z,31.14
2023-03-15T16:56:28.184Z,31.14
2023-03-15T16:58:31.074Z,31.39
2023-03-15T17:00:34.553Z,30.93
2023-03-15T17:02:37.399Z,30.74
2023-03-15T17:04:40.357Z,30.85
2023-03-15T17:06:45.311Z,30.89
2023-03-15T17:08:48.818Z,30.68
2023-03-15T17:10:51.920Z,30.70
2023-03-15T17:12:57.280Z,30.66
2023-03-15T17:15:01.551Z,30.68
2023-03-15T17:17:04.426Z,30.72
2023-03-15T17:19:10.578Z,30.79
2023-03-15T17:21:15.355Z,30.53
2023-03-15T17:23:20.863Z,30.64
2023-03-15T17:25:24.322Z,30.44
2023-03-15T17:27:33.854Z,30.35
2023-03-15T17:29:38.226Z,30.43
2023-03-15T17:31:41.023Z,30.44
2023-03-15T17:33:44.621Z,30.46
2023-03-15T17:35:54.067Z,30.47
2023-03-15T17:37:58.158Z,30.37
2023-03-15T17:40:01.109Z,30.38
2023-03-15T17:42:03.941Z,30.30
2023-03-15T17:44:07.076Z,30.39
2023-03-15T17:46:11.460Z,30.50
2023-03-15T17:48:14.464Z,30.41
2023-03-15T17:50:17.851Z,30.27
2023-03-15T17:52:21.072Z,30.36
2023-03-15T17:54:24.578Z,30.23
2023-03-15T17:56:30.199Z,30.25
2023-03-15T17:58:33.248Z,30.16
2023-03-15T18:00:36.176Z,30.32
2023-03-15T18:02:46.581Z,30.06
2023-03-15T18:04:52.732Z,30.27
2023-03-15T18:06:55.638Z,29.92
2023-03-15T18:08:58.462Z,30.13
2023-03-15T18:11:01.208Z,30.28
2023-03-15T18:13:04.916Z,30.09
2023-03-15T18:15:09.554Z,30.08
2023-03-15T18:17:12.410Z,29.82
2023-03-15T18:19:16.634Z,30.09
2023-03-15T18:21:21.878Z,30.01
2023-03-15T18:23:24.750Z,29.90
2023-03-15T18:25:29.477Z,29.96
2023-03-15T18:27:32.694Z,30.06
2023-03-15T18:29:35.882Z,30.31
2023-03-15T18:31:38.762Z,30.34
2023-03-15T18:33:41.630Z,30.71
2023-03-15T18:35:46.008Z,30.70
2023-03-15T18:37:48.888Z,30.53
2023-03-15T18:39:51.634Z,30.77
2023-03-15T18:41:54.351Z,30.65
2023-03-15T18:43:59.008Z,30.78
2023-03-15T18:46:01.847Z,30.98
2023-03-15T18:48:05.325Z,31.02
2023-03-15T18:50:10.825Z,31.26
2023-03-15T18:52:16.151Z,31.18
2023-03-15T18:54:19.012Z,31.12
2023-03-15T18:56:23.964Z,31.38
2023-03-15T18:58:26.812Z,30.98
2023-03-15T19:00:35.776Z,31.37
2023-03-15T19:02:38.762Z,31.62
2023-03-15T19:04:41.529Z,31.14
2023-03-15T19:06:44.371Z,31.04
2023-03-15T19:08:53.164Z,31.21
2023-03-15T19:10:59.017Z,31.47
2023-03-15T19:13:04.086Z,31.64
2023-03-15T19:15:10.553Z,31.37
2023-03-15T19:17:13.444Z,31.25
2023-03-15T19:19:16.505Z,31.40
2023-03-15T19:21:20.717Z,31.51
2023-03-15T19:23:23.531Z,31.57
2023-03-15T19:25:27.630Z,31.85
2023-03-15T19:27:30.448Z,31.72
2023-03-15T19:29:33.340Z,31.88
2023-03-15T19:31:36.116Z,31.72
2023-03-15T19:33:39.143Z,31.85
2023-03-15T19:35:41.959Z,31.73
2023-03-15T19:37:45.202Z,31.77
2023-03-15T19:39:48.048Z,31.78
2023-03-15T19:41:52.264Z,31.61
2023-03-15T19:43:55.065Z,31.60
2023-03-15T19:45:57.899Z,31.77
2023-03-15T19:48:00.888Z,31.96
2023-03-15T19:50:03.871Z,31.92
2023-03-15T19:52:06.899Z,32.20
2023-03-15T19:54:09.788Z,32.12
2023-03-15T19:56:12.601Z,31.73
2023-03-15T19:58:16.876Z,31.97
2023-03-15T20:00:23.147Z,31.91
2023-03-15T20:02:26.249Z,32.15
2023-03-15T20:04:29.322Z,31.93
2023-03-15T20:06:32.086Z,31.98
2023-03-15T20:08:35.128Z,32.08
2023-03-15T20:10:37.970Z,31.94
2023-03-15T20:12:43.029Z,32.16
2023-03-15T20:14:47.365Z,32.02
2023-03-15T20:16:50.276Z,32.25
2023-03-15T20:18:55.162Z,32.09
2023-03-15T20:20:58.300Z,32.16
2023-03-15T20:23:01.078Z,31.98
2023-03-15T20:25:04.823Z,32.04
2023-03-15T20:27:07.650Z,32.16
2023-03-15T20:29:11.018Z,32.18
2023-03-15T20:31:17.549Z,32.31
2023-03-15T20:33:20.334Z,32.27
2023-03-15T20:35:23.114Z,32.26
2023-03-15T20:37:25.949Z,32.19
2023-03-15T20:39:28.779Z,32.31
2023-03-15T20:41:32.905Z,32.10
2023-03-15T20:43:36.231Z,32.51
2023-03-15T20:45:39.008Z,32.41
2023-03-15T20:47:43.326Z,32.45
2023-03-15T20:49:46.274Z,32.53
2023-03-15T20:51:49.015Z,32.75
2023-03-15T20:53:51.818Z,32.73
2023-03-15T20:55:54.633Z,32.69
2023-03-15T20:57:57.423Z,32.48
2023-03-15T21:00:00.542Z,32.60
2023-03-15T21:02:04.273Z,32.85
2023-03-15T21:05:03.757Z,32.65
2023-03-15T21:07:08.597Z,33.01
2023-03-15T21:09:11.310Z,33.17
2023-03-15T21:11:14.988Z,33.07
2023-03-15T21:13:17.625Z,33.20
2023-03-15T21:15:20.386Z,33.22
2023-03-15T21:17:23.130Z,33.24
2023-03-15T21:19:25.789Z,33.12
2023-03-15T21:21:28.904Z,33.45
2023-03-15T21:23:33.425Z,33.63
2023-03-15T21:25:36.418Z,33.61
2023-03-15T21:27:39.174Z,33.40
2023-03-15T21:29:41.862Z,33.55
2023-03-15T21:31:44.563Z,33.41
2023-03-15T21:33:49.748Z,33.27
2023-03-15T21:35:53.825Z,33.70
2023-03-15T21:37:56.551Z,33.59
2023-03-15T21:40:00.652Z,33.71
2023-03-15T21:42:04.014Z,33.52
2023-03-15T21:44:06.656Z,33.72
2023-03-15T21:46:11.894Z,33.92
2023-03-15T21:48:14.668Z,33.91
2023-03-15T21:50:17.689Z,34.04
